Time;durP1;ratioP1;P1;durP2;ratioP2;P2;SDS_P1;SDS_P2;PMS_P1;PMS_P2;Temp;Humidity;BMP_temperature;BMP_pressure;BME280_temperature;BME280_humidity;BME280_pressure;Samples;Min_cycle;Max_cycle;Signal;HPM_P1;HPM_P2
2023/08/31 00:01:35;;;;;;;5.80;5.27;;;12.50;99.90;;;;;;8320940;28;20201;-66
2023/08/31 00:05:41;;;;;;;5.73;5.20;;;12.50;99.90;;;;;;8302968;28;20194;-64
2023/08/31 00:09:42;;;;;;;5.40;4.90;;;12.50;99.90;;;;;;8322489;28;20233;-66
2023/08/31 00:13:43;;;;;;;6.47;5.27;;;12.50;99.90;;;;;;8323155;28;20183;-64
2023/08/31 00:17:43;;;;;;;5.30;4.80;;;12.50;99.90;;;;;;8307653;28;21196;-66
2023/08/31 00:21:44;;;;;;;6.60;5.90;;;12.50;99.90;;;;;;8321094;28;20260;-65
2023/08/31 00:25:47;;;;;;;6.33;5.67;;;12.50;99.90;;;;;;8324593;28;20275;-68
2023/08/31 00:29:50;;;;;;;7.03;5.37;;;12.50;99.90;;;;;;8320367;28;20206;-65
2023/08/31 00:33:51;;;;;;;6.87;6.27;;;12.50;99.90;;;;;;8308823;28;20188;-67
2023/08/31 00:38:04;;;;;;;6.83;6.13;;;12.60;99.90;;;;;;8324947;28;20186;-69
2023/08/31 00:42:05;;;;;;;6.67;6.07;;;12.60;99.90;;;;;;8313422;28;20224;-67
2023/08/31 00:46:06;;;;;;;8.10;6.50;;;12.60;99.90;;;;;;8321537;28;20255;-67
2023/08/31 00:50:08;;;;;;;7.80;6.67;;;12.60;99.90;;;;;;8306253;28;20210;-66
2023/08/31 00:54:12;;;;;;;7.57;6.87;;;12.60;99.90;;;;;;8312458;28;20269;-71
2023/08/31 00:58:13;;;;;;;7.23;6.53;;;12.50;99.90;;;;;;8308928;28;20284;-66
2023/08/31 01:02:30;;;;;;;7.47;6.77;;;12.40;99.90;;;;;;8324322;28;20194;-67
2023/08/31 01:06:41;;;;;;;7.37;6.67;;;12.40;99.90;;;;;;8323071;28;20257;-68
2023/08/31 01:10:53;;;;;;;7.10;6.33;;;12.40;99.90;;;;;;8320985;28;20204;-66
2023/08/31 01:14:59;;;;;;;6.53;5.90;;;12.40;99.90;;;;;;8306206;28;20186;-70
2023/08/31 01:19:04;;;;;;;7.13;6.43;;;12.30;99.90;;;;;;8302362;28;20213;-67
2023/08/31 01:23:16;;;;;;;7.30;6.60;;;12.30;99.90;;;;;;8315983;28;20237;-66
2023/08/31 01:27:17;;;;;;;7.63;6.90;;;12.20;99.90;;;;;;8301955;28;20214;-67
2023/08/31 01:31:17;;;;;;;7.20;6.50;;;12.20;99.90;;;;;;8321108;28;20186;-67
2023/08/31 01:35:19;;;;;;;7.43;6.73;;;12.10;99.90;;;;;;8320254;28;20220;-64
2023/08/31 01:39:46;;;;;;;8.10;6.83;;;12.10;99.90;;;;;;8309604;28;20213;-70
2023/08/31 01:43:48;;;;;;;8.27;7.57;;;12.10;99.90;;;;;;8298884;28;20210;-63
2023/08/31 01:47:49;;;;;;;9.43;8.53;;;12.20;99.90;;;;;;8320584;28;20260;-64
2023/08/31 01:51:50;;;;;;;8.90;8.10;;;12.30;99.90;;;;;;8323482;28;20224;-63
2023/08/31 01:55:51;;;;;;;9.37;8.47;;;12.40;99.90;;;;;;8323326;28;20193;-65
2023/08/31 01:59:52;;;;;;;10.13;9.17;;;12.50;99.90;;;;;;8307424;28;20190;-65
2023/08/31 02:03:53;;;;;;;10.17;8.43;;;12.60;99.90;;;;;;8322654;28;20189;-64
2023/08/31 02:07:53;;;;;;;8.50;7.70;;;12.70;99.90;;;;;;8331015;28;20236;-65
2023/08/31 02:11:54;;;;;;;8.83;7.93;;;12.80;99.90;;;;;;8313048;28;20202;-62
2023/08/31 02:15:55;;;;;;;8.20;7.47;;;12.90;99.90;;;;;;8328604;28;20185;-63
2023/08/31 02:19:57;;;;;;;8.70;7.90;;;12.90;99.90;;;;;;8326785;28;20194;-64
2023/08/31 02:23:58;;;;;;;7.83;7.17;;;12.90;99.90;;;;;;8324634;28;20247;-66
2023/08/31 02:27:59;;;;;;;7.70;6.93;;;12.90;99.90;;;;;;8324050;28;20387;-62
2023/08/31 02:32:00;;;;;;;7.43;6.83;;;12.90;99.90;;;;;;8324631;28;20200;-64
2023/08/31 02:36:01;;;;;;;7.43;6.73;;;12.90;99.90;;;;;;8307594;28;20489;-66
2023/08/31 02:40:02;;;;;;;7.73;6.93;;;13.00;99.90;;;;;;8310021;28;20188;-65
2023/08/31 02:44:03;;;;;;;6.87;6.17;;;13.00;99.90;;;;;;8330064;28;20553;-67
2023/08/31 02:48:06;;;;;;;6.43;5.83;;;13.00;99.90;;;;;;8327743;28;20205;-63
2023/08/31 02:52:07;;;;;;;5.77;5.27;;;13.00;99.90;;;;;;8311480;28;20187;-63
2023/08/31 02:56:08;;;;;;;5.80;5.30;;;12.90;99.90;;;;;;8326351;28;20190;-66
2023/08/31 03:00:12;;;;;;;6.87;6.03;;;12.80;99.90;;;;;;8324352;28;20179;-61
2023/08/31 03:04:13;;;;;;;6.20;5.60;;;12.70;99.90;;;;;;8306915;28;20197;-66
2023/08/31 03:08:14;;;;;;;6.23;5.73;;;12.60;99.90;;;;;;8315984;28;20210;-63
2023/08/31 03:12:15;;;;;;;6.00;5.50;;;12.60;99.90;;;;;;8324643;28;20205;-63
2023/08/31 03:16:16;;;;;;;7.77;6.20;;;12.50;99.90;;;;;;8308297;28;20243;-60
2023/08/31 03:20:16;;;;;;;6.27;5.67;;;12.60;99.90;;;;;;8308154;28;20274;-61
2023/08/31 03:24:17;;;;;;;6.47;5.83;;;12.60;99.90;;;;;;8325555;28;20284;-62
2023/08/31 03:28:20;;;;;;;6.67;6.07;;;12.50;99.90;;;;;;8321285;28;20562;-62
2023/08/31 03:32:20;;;;;;;7.03;5.90;;;12.50;99.90;;;;;;8308972;28;20213;-62
2023/08/31 03:36:21;;;;;;;6.47;5.97;;;12.60;99.90;;;;;;8308117;28;20212;-65
2023/08/31 03:40:25;;;;;;;5.87;5.20;;;12.60;99.90;;;;;;8320643;28;20206;-61
2023/08/31 03:44:26;;;;;;;6.07;5.47;;;12.60;99.90;;;;;;8306013;28;20218;-63
2023/08/31 03:48:27;;;;;;;6.13;5.60;;;12.60;99.90;;;;;;8305450;28;20221;-64
2023/08/31 03:52:30;;;;;;;5.80;5.30;;;12.60;99.90;;;;;;8325690;28;20174;-64
2023/08/31 03:56:31;;;;;;;5.50;4.53;;;12.60;99.90;;;;;;8321860;28;20191;-64
2023/08/31 04:00:36;;;;;;;5.60;5.10;;;12.50;99.90;;;;;;8310286;28;20175;-67
2023/08/31 04:04:37;;;;;;;6.40;5.80;;;12.60;99.90;;;;;;8320226;28;20263;-68
2023/08/31 04:08:37;;;;;;;7.07;5.60;;;12.60;99.90;;;;;;8321220;28;20214;-66
2023/08/31 04:12:39;;;;;;;6.23;5.73;;;12.60;99.90;;;;;;8308260;28;20204;-64
2023/08/31 04:16:40;;;;;;;6.60;5.90;;;12.60;99.90;;;;;;8324076;28;20205;-65
2023/08/31 04:20:50;;;;;;;6.57;5.93;;;12.70;99.90;;;;;;8318282;28;20600;-64
2023/08/31 04:24:52;;;;;;;6.17;5.67;;;12.80;99.90;;;;;;8320796;28;20612;-64
2023/08/31 04:28:53;;;;;;;5.93;5.43;;;12.90;99.90;;;;;;8319879;28;20300;-63
2023/08/31 04:32:54;;;;;;;6.30;5.70;;;13.00;99.90;;;;;;8305999;28;20187;-63
2023/08/31 04:36:55;;;;;;;7.60;5.90;;;13.10;99.90;;;;;;8302307;28;20178;-62
2023/08/31 04:40:59;;;;;;;6.50;5.90;;;13.20;99.90;;;;;;8321837;28;20208;-65
2023/08/31 04:44:59;;;;;;;5.53;5.00;;;13.30;99.90;;;;;;8301503;28;20186;-63
2023/08/31 04:49:01;;;;;;;5.63;5.10;;;13.30;99.90;;;;;;8320279;28;20237;-63
2023/08/31 04:53:04;;;;;;;6.43;5.17;;;13.30;99.90;;;;;;8321611;28;20270;-65
2023/08/31 04:57:07;;;;;;;6.03;5.20;;;13.30;99.90;;;;;;8317098;28;20229;-64
2023/08/31 05:01:09;;;;;;;5.87;5.23;;;13.30;99.90;;;;;;8305803;28;21826;-64
2023/08/31 05:05:10;;;;;;;5.93;5.33;;;13.40;99.90;;;;;;8320679;28;20256;-64
2023/08/31 05:09:11;;;;;;;9.00;6.30;;;13.50;99.90;;;;;;8301556;28;20225;-62
2023/08/31 05:13:12;;;;;;;7.93;7.13;;;13.60;99.90;;;;;;8318535;28;20270;-63
2023/08/31 05:17:12;;;;;;;7.03;6.33;;;13.70;99.90;;;;;;8318947;28;20189;-62
2023/08/31 05:21:13;;;;;;;8.30;5.77;;;13.90;99.90;;;;;;8317145;28;20213;-65
2023/08/31 05:25:14;;;;;;;6.70;6.10;;;14.00;99.90;;;;;;8307467;28;20208;-63
2023/08/31 05:29:15;;;;;;;6.67;6.03;;;14.10;99.90;;;;;;8301883;28;20442;-65
2023/08/31 05:33:16;;;;;;;6.00;5.33;;;14.10;99.90;;;;;;8317548;28;20186;-62
2023/08/31 05:37:17;;;;;;;5.80;5.30;;;14.20;99.90;;;;;;8305691;28;20551;-63
2023/08/31 05:41:18;;;;;;;5.73;5.00;;;14.30;99.90;;;;;;8308463;28;20182;-61
2023/08/31 05:45:19;;;;;;;5.40;4.67;;;14.60;99.90;;;;;;8308454;28;20240;-65
2023/08/31 05:49:19;;;;;;;4.53;4.13;;;14.90;99.90;;;;;;8307352;28;20210;-66
2023/08/31 05:53:20;;;;;;;4.40;3.30;;;15.30;99.90;;;;;;8310184;28;20572;-63
2023/08/31 05:57:22;;;;;;;3.63;3.33;;;15.50;99.90;;;;;;8327307;28;20591;-63
2023/08/31 06:01:23;;;;;;;3.60;3.30;;;15.50;99.90;;;;;;8311592;28;20186;-64
2023/08/31 06:05:23;;;;;;;5.27;3.40;;;15.40;99.90;;;;;;8309454;28;20198;-64
2023/08/31 06:09:24;;;;;;;5.00;3.07;;;15.40;1.00;;;;;;8324092;28;20225;-65
2023/08/31 06:13:25;;;;;;;3.70;3.00;;;15.50;1.00;;;;;;8326791;28;20187;-64
2023/08/31 06:17:26;;;;;;;3.20;2.90;;;15.50;99.90;;;;;;8306263;28;20466;-65
2023/08/31 06:21:27;;;;;;;5.23;2.53;;;15.40;99.90;;;;;;8323083;28;20186;-64
2023/08/31 06:25:28;;;;;;;3.33;2.73;;;15.30;99.90;;;;;;8306633;28;20205;-63
2023/08/31 06:29:28;;;;;;;2.67;2.37;;;15.20;99.90;;;;;;8310013;28;20240;-65
2023/08/31 06:33:29;;;;;;;4.60;2.30;;;15.20;99.90;;;;;;8322988;28;20179;-66
2023/08/31 06:37:30;;;;;;;2.50;2.30;;;15.40;99.90;;;;;;8325103;28;20265;-65
2023/08/31 06:41:31;;;;;;;2.53;1.90;;;15.80;99.90;;;;;;8322000;28;20240;-64
2023/08/31 06:45:31;;;;;;;2.67;2.00;;;15.90;99.90;;;;;;8308169;28;20660;-65
2023/08/31 06:49:34;;;;;;;3.03;1.80;;;15.90;99.90;;;;;;8321266;28;20210;-66
2023/08/31 06:53:35;;;;;;;2.87;2.20;;;15.80;99.90;;;;;;8308467;28;20496;-64
2023/08/31 06:57:36;;;;;;;2.97;2.03;;;15.70;99.90;;;;;;8312475;28;20224;-65
2023/08/31 07:01:37;;;;;;;3.73;2.13;;;15.60;99.90;;;;;;8321797;28;20183;-66
2023/08/31 07:05:42;;;;;;;2.10;1.90;;;15.70;99.90;;;;;;8311955;28;20178;-65
2023/08/31 07:09:45;;;;;;;2.33;1.93;;;15.70;99.90;;;;;;8322625;28;20218;-63
2023/08/31 07:13:46;;;;;;;2.33;1.90;;;15.60;99.90;;;;;;8313451;28;20183;-65
2023/08/31 07:17:47;;;;;;;1.70;1.50;;;15.50;99.90;;;;;;8312680;28;20243;-65
2023/08/31 07:21:48;;;;;;;2.17;1.70;;;15.20;99.90;;;;;;8320202;28;20808;-65
2023/08/31 07:25:49;;;;;;;3.27;1.50;;;14.80;99.90;;;;;;8305547;28;20225;-66
2023/08/31 07:29:49;;;;;;;1.53;1.43;;;14.70;99.90;;;;;;8306093;28;20233;-65
2023/08/31 07:33:50;;;;;;;1.63;1.53;;;14.70;99.90;;;;;;8312281;28;20522;-64
2023/08/31 07:37:51;;;;;;;1.40;1.30;;;14.80;99.90;;;;;;8306688;28;20216;-64
2023/08/31 07:41:54;;;;;;;1.50;1.40;;;14.70;99.90;;;;;;8325141;28;20182;-64
2023/08/31 07:45:55;;;;;;;1.30;1.20;;;14.70;99.90;;;;;;8304467;28;20197;-64
2023/08/31 07:49:56;;;;;;;1.40;1.10;;;14.70;99.90;;;;;;8302532;28;20219;-64
2023/08/31 07:53:57;;;;;;;3.67;1.03;;;14.60;99.90;;;;;;8302105;28;20276;-65
2023/08/31 07:58:01;;;;;;;2.20;1.33;;;14.50;1.00;;;;;;8304470;28;20193;-64
2023/08/31 08:02:02;;;;;;;1.40;1.30;;;14.40;1.00;;;;;;8304859;28;20234;-65
2023/08/31 08:06:03;;;;;;;1.93;1.37;;;14.40;1.00;;;;;;8311711;28;20251;-62
2023/08/31 08:10:05;;;;;;;1.50;1.30;;;14.40;61.50;;;;;;8318154;28;20247;-63
2023/08/31 08:14:06;;;;;;;2.23;1.50;;;14.50;84.30;;;;;;8320504;28;20175;-63
2023/08/31 08:18:07;;;;;;;2.93;1.30;;;14.70;54.10;;;;;;8303187;28;20291;-63
2023/08/31 08:22:07;;;;;;;1.70;1.20;;;14.80;1.00;;;;;;8312910;28;20186;-63
2023/08/31 08:26:08;;;;;;;1.37;1.27;;;14.90;2.70;;;;;;8310862;28;20265;-63
2023/08/31 08:30:09;;;;;;;2.63;1.10;;;15.30;1.00;;;;;;8311189;28;20224;-63
2023/08/31 08:34:10;;;;;;;1.90;1.20;;;15.80;99.90;;;;;;8304201;28;20204;-63
2023/08/31 08:38:17;;;;;;;2.43;1.40;;;16.20;99.90;;;;;;8308292;28;20278;-64
2023/08/31 08:42:19;;;;;;;2.17;1.40;;;16.40;99.90;;;;;;8309168;28;20274;-64
2023/08/31 08:46:20;;;;;;;1.77;1.47;;;16.60;99.90;;;;;;8307907;28;20196;-65
2023/08/31 08:50:23;;;;;;;2.33;1.60;;;16.80;99.90;;;;;;8305153;28;20214;-66
2023/08/31 08:54:24;;;;;;;3.17;1.60;;;16.90;99.90;;;;;;8322288;28;20182;-64
2023/08/31 08:58:25;;;;;;;2.13;1.37;;;17.00;99.90;;;;;;8306861;28;20277;-63
2023/08/31 09:02:26;;;;;;;2.30;1.60;;;17.20;99.90;;;;;;8322410;28;20248;-62
2023/08/31 09:06:28;;;;;;;3.57;1.47;;;17.20;75.90;;;;;;8304403;28;20197;-62
2023/08/31 09:10:42;;;;;;;3.00;1.57;;;17.30;50.60;;;;;;8320346;28;20224;-65
2023/08/31 09:14:43;;;;;;;1.83;1.53;;;17.50;20.00;;;;;;8309099;28;20209;-65
2023/08/31 09:18:47;;;;;;;2.77;1.70;;;17.80;1.00;;;;;;8327806;28;20208;-62
2023/08/31 09:22:50;;;;;;;4.57;2.17;;;18.20;1.00;;;;;;8324882;28;20194;-63
2023/08/31 09:27:00;;;;;;;2.60;1.67;;;18.60;1.00;;;;;;8323128;28;20244;-65
2023/08/31 09:31:08;;;;;;;6.33;1.87;;;18.30;1.00;;;;;;8326319;28;20507;-64
2023/08/31 09:35:09;;;;;;;6.67;2.00;;;18.50;1.00;;;;;;8327129;28;20232;-63
2023/08/31 09:39:11;;;;;;;3.97;1.67;;;19.00;1.00;;;;;;8310793;28;20178;-64
2023/08/31 09:43:12;;;;;;;2.87;1.90;;;18.90;1.00;;;;;;8307440;28;20195;-65
2023/08/31 09:47:14;;;;;;;2.37;1.43;;;18.40;1.00;;;;;;8317275;28;20300;-62
2023/08/31 09:51:17;;;;;;;2.20;1.30;;;18.20;1.00;;;;;;8324431;28;20210;-65
2023/08/31 09:55:20;;;;;;;2.77;1.70;;;18.20;1.00;;;;;;8309225;28;20270;-63
2023/08/31 09:59:21;;;;;;;2.73;1.90;;;18.30;1.00;;;;;;8326889;28;20249;-63
2023/08/31 10:03:23;;;;;;;3.67;1.70;;;18.10;1.00;;;;;;8310926;28;20190;-62
2023/08/31 10:07:24;;;;;;;2.80;1.27;;;17.90;1.00;;;;;;8326527;28;20258;-62
2023/08/31 10:11:25;;;;;;;3.27;1.33;;;17.80;1.00;;;;;;8324259;28;20198;-64
2023/08/31 10:15:32;;;;;;;2.30;1.37;;;17.70;1.00;;;;;;8321015;28;20187;-65
2023/08/31 10:19:33;;;;;;;1.70;1.40;;;17.80;1.00;;;;;;8322575;28;20240;-65
2023/08/31 10:23:35;;;;;;;2.67;1.50;;;18.10;1.00;;;;;;8320934;28;20454;-63
2023/08/31 10:27:41;;;;;;;3.23;1.50;;;18.40;1.00;;;;;;8307389;28;20210;-64
2023/08/31 10:31:47;;;;;;;2.17;1.43;;;19.10;1.00;;;;;;8321997;28;20260;-65
2023/08/31 10:35:47;;;;;;;4.90;1.70;;;19.20;1.00;;;;;;8326831;28;20285;-64
2023/08/31 10:39:48;;;;;;;3.30;1.73;;;19.20;1.00;;;;;;8307721;28;20189;-66
2023/08/31 10:43:57;;;;;;;2.23;1.27;;;19.50;1.00;;;;;;8308180;28;20186;-64
2023/08/31 10:48:02;;;;;;;2.27;1.50;;;20.00;1.00;;;;;;8308006;28;20210;-61
2023/08/31 10:52:19;;;;;;;2.97;1.43;;;20.30;1.00;;;;;;8308815;28;20273;-65
2023/08/31 10:56:20;;;;;;;1.60;1.30;;;20.30;1.00;;;;;;8307564;28;20186;-63
2023/08/31 11:00:52;;;;;;;2.83;1.23;;;20.80;1.00;;;;;;8309174;28;20186;-66
2023/08/31 11:04:55;;;;;;;2.37;1.17;;;20.90;1.00;;;;;;8326626;28;20205;-65
2023/08/31 11:08:56;;;;;;;1.50;1.20;;;20.80;1.00;;;;;;8326341;28;20206;-67
2023/08/31 11:12:57;;;;;;;3.60;1.37;;;20.80;1.00;;;;;;8305548;28;20190;-62
2023/08/31 11:17:04;;;;;;;2.97;1.40;;;20.70;1.00;;;;;;8305510;28;20182;-63
2023/08/31 11:21:05;;;;;;;3.83;1.20;;;20.60;1.00;;;;;;8312435;28;20178;-64
2023/08/31 11:25:08;;;;;;;2.00;1.20;;;20.50;1.00;;;;;;8322837;28;20194;-64
2023/08/31 11:29:09;;;;;;;6.63;1.60;;;20.00;1.00;;;;;;8321300;28;20221;-62
2023/08/31 11:33:14;;;;;;;6.00;2.03;;;19.20;1.00;;;;;;8325757;28;20177;-64
2023/08/31 11:37:15;;;;;;;3.13;1.80;;;18.00;1.00;;;;;;8303802;28;20222;-64
2023/08/31 11:41:17;;;;;;;3.27;1.90;;;18.00;1.00;;;;;;8307556;28;20197;-62
2023/08/31 11:45:19;;;;;;;3.57;1.77;;;17.90;1.00;;;;;;8322990;28;20194;-66
2023/08/31 11:49:20;;;;;;;2.97;1.77;;;17.90;1.00;;;;;;8307963;28;20213;-65
2023/08/31 11:53:21;;;;;;;3.90;1.50;;;18.10;1.00;;;;;;8308920;28;20325;-67
2023/08/31 11:57:28;;;;;;;2.20;1.60;;;18.00;1.00;;;;;;8323390;28;20181;-64
2023/08/31 12:01:29;;;;;;;3.03;1.67;;;17.90;1.00;;;;;;8323243;28;20186;-63
2023/08/31 12:05:45;;;;;;;3.60;1.57;;;17.90;1.00;;;;;;8312631;28;20208;-64
2023/08/31 12:09:46;;;;;;;2.13;1.60;;;17.70;1.00;;;;;;8319465;28;20475;-63
2023/08/31 12:13:46;;;;;;;3.67;1.50;;;17.90;1.00;;;;;;8320468;28;20175;-64
2023/08/31 12:17:54;;;;;;;3.73;1.77;;;18.20;1.00;;;;;;8304749;28;20609;-65
2023/08/31 12:21:55;;;;;;;3.70;1.50;;;18.50;1.00;;;;;;8307060;28;20207;-62
2023/08/31 12:25:56;;;;;;;2.73;1.60;;;18.70;1.00;;;;;;8307167;28;20205;-66
2023/08/31 12:29:57;;;;;;;3.20;1.87;;;19.00;1.00;;;;;;8305127;28;20212;-64
2023/08/31 12:34:00;;;;;;;2.30;1.63;;;19.40;1.00;;;;;;8322154;28;20186;-64
2023/08/31 12:38:01;;;;;;;3.77;1.40;;;20.10;1.00;;;;;;8309093;28;20236;-64
2023/08/31 12:42:02;;;;;;;6.40;1.60;;;20.70;1.00;;;;;;8320690;28;20185;-65
2023/08/31 12:46:05;;;;;;;2.57;1.40;;;20.70;1.00;;;;;;8310195;28;20189;-63
2023/08/31 12:50:06;;;;;;;1.67;1.40;;;20.30;1.00;;;;;;8302406;28;20328;-64
2023/08/31 12:54:08;;;;;;;3.80;1.50;;;19.90;1.00;;;;;;8304326;28;20181;-64
2023/08/31 12:58:08;;;;;;;2.37;1.80;;;19.80;1.00;;;;;;8317534;28;20186;-64
2023/08/31 13:02:11;;;;;;;3.27;1.50;;;19.70;1.00;;;;;;8320901;28;20265;-66
2023/08/31 13:06:13;;;;;;;1.93;1.20;;;19.90;1.00;;;;;;8317727;28;20254;-65
2023/08/31 13:10:13;;;;;;;1.80;1.30;;;20.40;1.00;;;;;;8306201;28;20222;-64
2023/08/31 13:14:14;;;;;;;2.70;1.40;;;20.30;1.00;;;;;;8301815;28;20186;-62
2023/08/31 13:18:16;;;;;;;1.80;1.53;;;20.20;1.00;;;;;;8307558;28;20189;-67
2023/08/31 13:22:16;;;;;;;2.03;1.47;;;20.20;1.00;;;;;;8322696;28;20251;-66
2023/08/31 13:26:17;;;;;;;2.27;1.33;;;19.90;1.00;;;;;;8309751;28;20284;-64
2023/08/31 13:30:18;;;;;;;2.63;1.53;;;19.70;1.00;;;;;;8305411;28;20248;-65
2023/08/31 13:34:19;;;;;;;2.23;1.30;;;19.60;1.00;;;;;;8321888;28;20191;-64
2023/08/31 13:38:19;;;;;;;3.27;1.30;;;19.70;1.00;;;;;;8321776;28;20218;-65
2023/08/31 13:42:23;;;;;;;2.20;1.27;;;19.70;1.00;;;;;;8303072;28;20178;-65
2023/08/31 13:46:24;;;;;;;2.83;1.57;;;19.80;1.00;;;;;;8318927;28;20194;-65
2023/08/31 13:50:24;;;;;;;1.50;1.27;;;19.70;1.00;;;;;;8320091;28;20206;-65
2023/08/31 13:54:25;;;;;;;2.07;1.27;;;19.30;1.00;;;;;;8306586;28;20281;-64
2023/08/31 13:58:26;;;;;;;3.00;1.40;;;19.20;1.00;;;;;;8303266;28;20186;-65
2023/08/31 14:02:27;;;;;;;2.00;1.50;;;19.10;1.00;;;;;;8325072;28;20181;-62
2023/08/31 14:06:28;;;;;;;2.37;1.40;;;19.10;1.00;;;;;;8313558;28;20252;-63
2023/08/31 14:10:33;;;;;;;3.43;1.50;;;19.00;1.00;;;;;;8308083;28;20317;-64
2023/08/31 14:14:35;;;;;;;2.47;1.30;;;18.80;1.00;;;;;;8315075;28;20214;-64
2023/08/31 14:18:36;;;;;;;2.47;1.40;;;18.60;1.00;;;;;;8312235;28;20190;-63
2023/08/31 14:22:42;;;;;;;2.33;1.70;;;18.30;1.00;;;;;;8311380;28;20451;-64
2023/08/31 14:26:44;;;;;;;2.13;1.30;;;17.90;1.00;;;;;;8326298;28;20228;-65
2023/08/31 14:30:45;;;;;;;2.23;1.30;;;17.70;1.00;;;;;;8324932;28;20202;-63
2023/08/31 14:34:46;;;;;;;2.73;1.30;;;18.00;1.00;;;;;;8321842;28;20181;-62
2023/08/31 14:38:47;;;;;;;2.07;1.30;;;18.50;1.00;;;;;;8320579;28;20214;-63
2023/08/31 14:42:48;;;;;;;4.00;1.33;;;18.70;1.00;;;;;;8325726;28;20183;-65
2023/08/31 14:46:49;;;;;;;1.63;1.20;;;18.70;1.00;;;;;;8324706;28;20206;-63
2023/08/31 14:50:51;;;;;;;1.67;1.00;;;18.80;1.00;;;;;;8328333;28;20202;-63
2023/08/31 14:54:51;;;;;;;1.40;1.10;;;18.80;1.00;;;;;;8312776;28;20209;-61
2023/08/31 14:58:52;;;;;;;3.60;1.10;;;18.70;1.00;;;;;;8316515;28;20185;-64
2023/08/31 15:02:54;;;;;;;1.40;1.30;;;18.60;1.00;;;;;;8314067;28;20191;-61
2023/08/31 15:06:55;;;;;;;2.23;1.30;;;18.40;1.00;;;;;;8324742;28;20190;-63
2023/08/31 15:10:57;;;;;;;1.33;1.20;;;18.40;1.00;;;;;;8307507;28;20202;-61
2023/08/31 15:14:57;;;;;;;2.40;1.60;;;18.40;1.00;;;;;;8323121;28;20191;-61
2023/08/31 15:18:58;;;;;;;3.20;1.93;;;18.40;1.00;;;;;;8324817;28;20194;-63
2023/08/31 15:22:59;;;;;;;2.53;1.30;;;18.20;1.00;;;;;;8305241;28;20203;-62
2023/08/31 15:27:00;;;;;;;1.67;1.50;;;18.20;1.00;;;;;;8308243;28;20181;-63
2023/08/31 15:31:01;;;;;;;2.23;1.40;;;18.10;1.00;;;;;;8306334;28;20190;-64
2023/08/31 15:35:02;;;;;;;2.40;1.20;;;17.90;1.00;;;;;;8322563;28;20178;-63
2023/08/31 15:39:03;;;;;;;1.23;1.13;;;18.00;1.00;;;;;;8319698;28;20186;-61
2023/08/31 15:43:07;;;;;;;3.13;1.30;;;18.20;1.00;;;;;;8308545;28;20296;-63
2023/08/31 15:47:09;;;;;;;3.73;1.33;;;18.30;1.00;;;;;;8305203;28;20269;-63
2023/08/31 15:51:10;;;;;;;1.30;1.17;;;18.10;1.00;;;;;;8323735;28;20190;-63
2023/08/31 15:55:10;;;;;;;1.50;1.17;;;17.90;1.00;;;;;;8303123;28;20277;-64
2023/08/31 15:59:11;;;;;;;2.67;1.23;;;17.80;1.00;;;;;;8322136;28;20232;-60
2023/08/31 16:03:12;;;;;;;2.43;1.40;;;17.90;1.00;;;;;;8320876;28;20194;-61
2023/08/31 16:07:13;;;;;;;4.93;1.37;;;18.20;1.00;;;;;;8307705;28;20229;-62
2023/08/31 16:11:14;;;;;;;1.60;1.27;;;18.50;1.00;;;;;;8322342;28;21304;-61
2023/08/31 16:15:15;;;;;;;2.37;1.10;;;18.50;1.00;;;;;;8305014;28;20438;-64
2023/08/31 16:19:16;;;;;;;3.93;1.07;;;18.30;1.00;;;;;;8321357;28;20246;-62
2023/08/31 16:23:16;;;;;;;1.53;0.90;;;18.10;1.00;;;;;;8305426;28;20236;-61
2023/08/31 16:27:17;;;;;;;4.10;1.03;;;17.80;1.00;;;;;;8308791;28;20189;-62
2023/08/31 16:31:18;;;;;;;2.30;1.20;;;17.60;1.00;;;;;;8318798;28;20182;-62
2023/08/31 16:35:19;;;;;;;1.40;1.10;;;17.40;1.00;;;;;;8306938;28;20192;-65
2023/08/31 16:39:21;;;;;;;1.23;0.90;;;17.30;1.00;;;;;;8308606;28;20201;-63
2023/08/31 16:43:23;;;;;;;2.30;1.33;;;17.20;1.00;;;;;;8306704;28;20182;-62
2023/08/31 16:47:25;;;;;;;1.70;1.20;;;17.00;1.00;;;;;;8307253;28;20222;-61
2023/08/31 16:51:26;;;;;;;2.03;1.20;;;16.90;1.00;;;;;;8324550;28;20189;-64
2023/08/31 16:55:27;;;;;;;1.83;1.10;;;16.80;1.00;;;;;;8319699;28;20185;-65
2023/08/31 16:59:28;;;;;;;2.27;1.10;;;16.70;1.00;;;;;;8306662;28;20213;-65
2023/08/31 17:03:29;;;;;;;1.03;0.70;;;16.60;1.00;;;;;;8306124;28;20248;-63
2023/08/31 17:07:30;;;;;;;1.23;0.77;;;16.60;1.00;;;;;;8322884;28;20214;-64
2023/08/31 17:11:33;;;;;;;1.37;0.97;;;16.70;1.00;;;;;;8320778;28;20209;-65
2023/08/31 17:15:34;;;;;;;1.33;1.10;;;16.70;1.00;;;;;;8305426;28;20214;-63
2023/08/31 17:19:36;;;;;;;1.43;0.80;;;16.70;1.00;;;;;;8316855;28;20195;-62
2023/08/31 17:23:38;;;;;;;1.87;0.97;;;16.60;1.00;;;;;;8320947;28;20528;-65
2023/08/31 17:27:39;;;;;;;1.00;0.87;;;16.30;1.00;;;;;;8309436;28;20211;-63
2023/08/31 17:31:40;;;;;;;1.00;0.90;;;15.90;1.00;;;;;;8318866;28;20195;-64
2023/08/31 17:35:42;;;;;;;1.77;1.00;;;15.50;1.00;;;;;;8305925;28;20182;-64
2023/08/31 17:39:43;;;;;;;1.57;1.07;;;15.20;1.00;;;;;;8308266;28;20187;-65
2023/08/31 17:43:44;;;;;;;1.83;1.00;;;14.80;1.00;;;;;;8326818;28;20181;-65
2023/08/31 17:47:45;;;;;;;1.67;1.17;;;14.50;1.00;;;;;;8310236;28;20209;-63
2023/08/31 17:51:48;;;;;;;3.23;1.20;;;14.30;1.00;;;;;;8328270;28;20197;-65
2023/08/31 17:55:49;;;;;;;1.80;1.00;;;14.00;1.00;;;;;;8325283;28;20302;-65
2023/08/31 17:59:50;;;;;;;3.00;1.20;;;13.80;29.70;;;;;;8309658;28;20214;-65
2023/08/31 18:03:51;;;;;;;1.60;0.90;;;13.60;73.60;;;;;;8327997;28;20594;-64
2023/08/31 18:07:52;;;;;;;2.77;1.30;;;13.40;99.90;;;;;;8326874;28;20202;-64
2023/08/31 18:11:53;;;;;;;1.90;1.20;;;13.30;99.90;;;;;;8312036;28;20317;-63
2023/08/31 18:15:55;;;;;;;1.60;1.17;;;13.10;99.90;;;;;;8312764;28;20189;-61
2023/08/31 18:19:55;;;;;;;2.20;1.50;;;13.00;99.90;;;;;;8324399;28;20189;-63
2023/08/31 18:23:56;;;;;;;3.00;1.80;;;12.90;99.90;;;;;;8329681;28;20221;-60
2023/08/31 18:27:57;;;;;;;2.37;1.87;;;12.70;99.90;;;;;;8310214;28;20206;-61
2023/08/31 18:31:58;;;;;;;2.70;1.97;;;12.50;99.90;;;;;;8321700;28;20182;-60
2023/08/31 18:36:03;;;;;;;4.00;2.40;;;12.40;99.90;;;;;;8311412;28;20189;-59
2023/08/31 18:40:05;;;;;;;5.50;3.90;;;12.30;1.00;;;;;;8325679;28;20189;-59
2023/08/31 18:44:06;;;;;;;3.30;2.50;;;12.30;99.90;;;;;;8328612;28;20405;-59
2023/08/31 18:48:07;;;;;;;4.40;1.70;;;12.30;98.70;;;;;;8305704;28;20236;-64
2023/08/31 18:52:08;;;;;;;3.80;1.70;;;12.40;1.00;;;;;;8311710;28;20216;-59
2023/08/31 18:56:09;;;;;;;2.50;1.60;;;12.40;1.00;;;;;;8311506;28;20193;-60
2023/08/31 19:00:13;;;;;;;3.10;2.10;;;12.30;1.00;;;;;;8307587;28;20313;-61
2023/08/31 19:04:14;;;;;;;2.20;1.67;;;12.20;1.00;;;;;;8315952;28;20213;-62
2023/08/31 19:08:15;;;;;;;2.13;1.60;;;12.00;1.00;;;;;;8308765;28;20552;-61
2023/08/31 19:12:15;;;;;;;2.00;1.47;;;11.90;1.00;;;;;;8323793;28;20217;-61
2023/08/31 19:16:17;;;;;;;3.37;1.67;;;11.80;80.60;;;;;;8326432;28;20192;-59
2023/08/31 19:20:18;;;;;;;2.00;1.53;;;11.60;99.90;;;;;;8323761;28;20280;-61
2023/08/31 19:24:19;;;;;;;1.53;1.43;;;11.50;1.00;;;;;;8310313;28;20208;-61
2023/08/31 19:28:20;;;;;;;1.90;1.70;;;11.40;99.90;;;;;;8324794;28;20223;-61
2023/08/31 19:32:21;;;;;;;1.97;1.30;;;11.30;1.00;;;;;;8308996;28;20190;-61
2023/08/31 19:36:22;;;;;;;2.07;1.73;;;11.30;99.90;;;;;;8302370;28;20188;-61
2023/08/31 19:40:23;;;;;;;1.77;1.67;;;11.30;99.90;;;;;;8326177;28;20254;-59
2023/08/31 19:44:25;;;;;;;2.37;1.90;;;11.40;1.00;;;;;;8319534;28;20251;-60
2023/08/31 19:48:26;;;;;;;1.70;1.60;;;11.50;1.00;;;;;;8309326;28;20221;-58
2023/08/31 19:52:26;;;;;;;3.37;1.77;;;11.60;1.00;;;;;;8325404;28;20416;-61
2023/08/31 19:56:27;;;;;;;1.80;1.60;;;11.70;54.20;;;;;;8320748;28;20192;-61
2023/08/31 20:00:28;;;;;;;2.60;2.10;;;11.70;99.90;;;;;;8324739;28;20189;-60
2023/08/31 20:04:32;;;;;;;3.40;2.37;;;11.80;87.30;;;;;;8320872;28;20201;-60
2023/08/31 20:08:33;;;;;;;2.87;1.93;;;11.90;1.00;;;;;;8306892;28;20214;-62
2023/08/31 20:12:34;;;;;;;2.77;1.93;;;11.80;1.00;;;;;;8312298;28;20296;-59
2023/08/31 20:16:35;;;;;;;2.30;1.97;;;11.80;1.00;;;;;;8320450;28;20190;-60
2023/08/31 20:20:35;;;;;;;2.00;1.80;;;11.70;1.00;;;;;;8319355;28;20273;-64
2023/08/31 20:24:36;;;;;;;2.20;2.00;;;11.60;99.90;;;;;;8314872;28;20293;-60
2023/08/31 20:28:37;;;;;;;2.03;1.50;;;11.40;99.90;;;;;;8306777;28;20308;-62
2023/08/31 20:32:38;;;;;;;1.73;1.60;;;11.30;99.90;;;;;;8320984;28;20197;-60
2023/08/31 20:36:39;;;;;;;2.10;1.90;;;11.20;1.00;;;;;;8322099;28;20197;-60
2023/08/31 20:40:40;;;;;;;2.10;1.67;;;11.20;99.90;;;;;;8305224;28;20192;-63
2023/08/31 20:44:41;;;;;;;2.67;1.80;;;11.10;1.00;;;;;;8308059;28;20327;-64
2023/08/31 20:48:42;;;;;;;3.10;1.80;;;11.00;99.90;;;;;;8323574;28;20219;-60
2023/08/31 20:52:43;;;;;;;2.40;1.70;;;11.00;99.90;;;;;;8311938;28;20188;-61
2023/08/31 20:56:44;;;;;;;2.50;1.90;;;10.90;86.20;;;;;;8324101;28;20201;-61
2023/08/31 21:00:45;;;;;;;2.97;1.97;;;10.90;99.90;;;;;;8321962;28;20304;-60
2023/08/31 21:04:46;;;;;;;2.23;1.73;;;10.90;99.90;;;;;;8303912;28;20303;-61
2023/08/31 21:08:47;;;;;;;2.83;2.00;;;10.90;99.90;;;;;;8313224;28;20213;-62